sensor_id;sensor_type;location;lat;lon;timestamp;P1;durP1;ratioP1;P2;durP2;ratioP2
20497;SDS011;10407;53.238;10.448;2023-09-18T00:00:26;122.10;;;23.67;;
20497;SDS011;10407;53.238;10.448;2023-09-18T00:02:53;129.30;;;25.57;;
20497;SDS011;10407;53.238;10.448;2023-09-18T00:05:21;125.47;;;27.03;;
20497;SDS011;10407;53.238;10.448;2023-09-18T00:07:48;123.30;;;25.13;;
20497;SDS011;10407;53.238;10.448;2023-09-18T00:10:16;122.87;;;23.60;;
20497;SDS011;10407;53.238;10.448;2023-09-18T00:12:43;125.03;;;26.93;;
20497;SDS011;10407;53.238;10.448;2023-09-18T00:15:11;121.60;;;22.60;;
20497;SDS011;10407;53.238;10.448;2023-09-18T00:17:38;121.77;;;23.43;;
20497;SDS011;10407;53.238;10.448;2023-09-18T00:20:06;127.97;;;25.47;;
20497;SDS011;10407;53.238;10.448;2023-09-18T00:22:34;124.73;;;24.70;;
20497;SDS011;10407;53.238;10.448;2023-09-18T00:25:02;123.70;;;23.53;;
20497;SDS011;10407;53.238;10.448;2023-09-18T00:27:30;123.87;;;24.20;;
20497;SDS011;10407;53.238;10.448;2023-09-18T00:29:58;125.70;;;23.50;;
20497;SDS011;10407;53.238;10.448;2023-09-18T00:32:27;121.10;;;23.07;;
20497;SDS011;10407;53.238;10.448;2023-09-18T00:34:55;120.40;;;22.90;;
20497;SDS011;10407;53.238;10.448;2023-09-18T00:37:22;122.50;;;25.30;;
20497;SDS011;10407;53.238;10.448;2023-09-18T00:39:50;122.27;;;23.43;;
20497;SDS011;10407;53.238;10.448;2023-09-18T00:42:17;125.20;;;27.90;;
20497;SDS011;10407;53.238;10.448;2023-09-18T00:44:47;121.67;;;23.17;;
20497;SDS011;10407;53.238;10.448;2023-09-18T00:47:15;125.43;;;26.17;;
20497;SDS011;10407;53.238;10.448;2023-09-18T00:49:45;122.00;;;23.50;;
20497;SDS011;10407;53.238;10.448;2023-09-18T00:52:14;123.47;;;25.30;;
20497;SDS011;10407;53.238;10.448;2023-09-18T00:54:43;120.60;;;22.43;;
20497;SDS011;10407;53.238;10.448;2023-09-18T00:57:13;125.13;;;24.13;;
20497;SDS011;10407;53.238;10.448;2023-09-18T00:59:40;123.53;;;26.80;;
20497;SDS011;10407;53.238;10.448;2023-09-18T01:02:08;127.97;;;28.03;;
20497;SDS011;10407;53.238;10.448;2023-09-18T01:04:36;123.57;;;27.00;;
20497;SDS011;10407;53.238;10.448;2023-09-18T01:07:06;125.50;;;26.77;;
20497;SDS011;10407;53.238;10.448;2023-09-18T01:09:33;123.87;;;26.17;;
20497;SDS011;10407;53.238;10.448;2023-09-18T01:15:03;123.43;;;26.23;;
20497;SDS011;10407;53.238;10.448;2023-09-18T01:17:49;124.27;;;26.37;;
20497;SDS011;10407;53.238;10.448;2023-09-18T01:20:17;126.60;;;27.83;;
20497;SDS011;10407;53.238;10.448;2023-09-18T01:22:45;122.67;;;26.13;;
20497;SDS011;10407;53.238;10.448;2023-09-18T01:25:14;125.57;;;28.07;;
20497;SDS011;10407;53.238;10.448;2023-09-18T01:27:42;125.03;;;26.97;;
20497;SDS011;10407;53.238;10.448;2023-09-18T01:30:10;125.20;;;27.33;;
20497;SDS011;10407;53.238;10.448;2023-09-18T01:32:38;125.67;;;28.47;;
20497;SDS011;10407;53.238;10.448;2023-09-18T01:35:07;126.23;;;25.50;;
20497;SDS011;10407;53.238;10.448;2023-09-18T01:37:36;124.37;;;27.37;;
20497;SDS011;10407;53.238;10.448;2023-09-18T01:40:06;125.53;;;27.17;;
20497;SDS011;10407;53.238;10.448;2023-09-18T01:42:36;124.20;;;27.50;;
20497;SDS011;10407;53.238;10.448;2023-09-18T01:45:06;125.60;;;28.10;;
20497;SDS011;10407;53.238;10.448;2023-09-18T01:47:34;125.63;;;28.80;;
20497;SDS011;10407;53.238;10.448;2023-09-18T01:50:06;126.53;;;29.17;;
20497;SDS011;10407;53.238;10.448;2023-09-18T01:52:33;129.40;;;27.40;;
20497;SDS011;10407;53.238;10.448;2023-09-18T01:55:01;124.67;;;28.67;;
20497;SDS011;10407;53.238;10.448;2023-09-18T01:57:33;124.37;;;26.13;;
20497;SDS011;10407;53.238;10.448;2023-09-18T02:00:02;124.67;;;26.60;;
20497;SDS011;10407;53.238;10.448;2023-09-18T02:02:31;129.30;;;32.57;;
20497;SDS011;10407;53.238;10.448;2023-09-18T02:04:59;123.07;;;26.70;;
20497;SDS011;10407;53.238;10.448;2023-09-18T02:07:28;126.97;;;32.53;;
20497;SDS011;10407;53.238;10.448;2023-09-18T02:09:55;129.07;;;26.63;;
20497;SDS011;10407;53.238;10.448;2023-09-18T02:12:23;125.87;;;24.70;;
20497;SDS011;10407;53.238;10.448;2023-09-18T02:14:50;126.37;;;28.10;;
20497;SDS011;10407;53.238;10.448;2023-09-18T02:17:18;125.30;;;27.97;;
20497;SDS011;10407;53.238;10.448;2023-09-18T02:19:46;125.90;;;32.03;;
20497;SDS011;10407;53.238;10.448;2023-09-18T02:22:13;125.60;;;25.80;;
20497;SDS011;10407;53.238;10.448;2023-09-18T02:24:41;123.60;;;26.67;;
20497;SDS011;10407;53.238;10.448;2023-09-18T02:27:08;124.70;;;26.57;;
20497;SDS011;10407;53.238;10.448;2023-09-18T02:29:37;127.37;;;25.23;;
20497;SDS011;10407;53.238;10.448;2023-09-18T02:32:05;127.90;;;26.10;;
20497;SDS011;10407;53.238;10.448;2023-09-18T02:34:32;129.67;;;32.17;;
20497;SDS011;10407;53.238;10.448;2023-09-18T02:37:00;127.47;;;26.53;;
20497;SDS011;10407;53.238;10.448;2023-09-18T02:39:27;122.87;;;24.87;;
20497;SDS011;10407;53.238;10.448;2023-09-18T02:41:55;125.13;;;27.30;;
20497;SDS011;10407;53.238;10.448;2023-09-18T02:44:22;127.10;;;27.57;;
20497;SDS011;10407;53.238;10.448;2023-09-18T02:46:50;123.47;;;25.33;;
20497;SDS011;10407;53.238;10.448;2023-09-18T02:49:18;124.13;;;25.20;;
20497;SDS011;10407;53.238;10.448;2023-09-18T02:51:46;125.13;;;26.27;;
20497;SDS011;10407;53.238;10.448;2023-09-18T02:54:15;127.47;;;28.97;;
20497;SDS011;10407;53.238;10.448;2023-09-18T02:56:43;126.80;;;30.27;;
20497;SDS011;10407;53.238;10.448;2023-09-18T02:59:10;124.87;;;26.20;;
20497;SDS011;10407;53.238;10.448;2023-09-18T03:01:38;125.97;;;27.50;;
20497;SDS011;10407;53.238;10.448;2023-09-18T03:04:05;126.00;;;29.60;;
20497;SDS011;10407;53.238;10.448;2023-09-18T03:06:33;127.70;;;25.53;;
20497;SDS011;10407;53.238;10.448;2023-09-18T03:09:00;121.40;;;22.87;;
20497;SDS011;10407;53.238;10.448;2023-09-18T03:11:28;123.87;;;25.90;;
20497;SDS011;10407;53.238;10.448;2023-09-18T03:13:55;128.97;;;25.20;;
20497;SDS011;10407;53.238;10.448;2023-09-18T03:16:23;124.97;;;29.53;;
20497;SDS011;10407;53.238;10.448;2023-09-18T03:18:50;122.70;;;25.23;;
20497;SDS011;10407;53.238;10.448;2023-09-18T03:21:18;128.13;;;27.80;;
20497;SDS011;10407;53.238;10.448;2023-09-18T03:23:45;122.87;;;25.67;;
20497;SDS011;10407;53.238;10.448;2023-09-18T03:26:13;127.53;;;29.00;;
20497;SDS011;10407;53.238;10.448;2023-09-18T03:28:40;124.83;;;27.37;;
20497;SDS011;10407;53.238;10.448;2023-09-18T03:31:08;128.50;;;31.50;;
20497;SDS011;10407;53.238;10.448;2023-09-18T03:33:35;131.87;;;27.27;;
20497;SDS011;10407;53.238;10.448;2023-09-18T03:36:03;127.17;;;26.77;;
20497;SDS011;10407;53.238;10.448;2023-09-18T03:38:30;128.10;;;31.00;;
20497;SDS011;10407;53.238;10.448;2023-09-18T03:41:00;127.00;;;27.83;;
20497;SDS011;10407;53.238;10.448;2023-09-18T03:43:27;122.73;;;26.40;;
20497;SDS011;10407;53.238;10.448;2023-09-18T03:45:55;124.77;;;26.83;;
20497;SDS011;10407;53.238;10.448;2023-09-18T03:48:24;128.10;;;31.00;;
20497;SDS011;10407;53.238;10.448;2023-09-18T03:50:51;124.67;;;27.30;;
20497;SDS011;10407;53.238;10.448;2023-09-18T03:53:19;125.50;;;27.20;;
20497;SDS011;10407;53.238;10.448;2023-09-18T03:55:48;124.20;;;26.80;;
20497;SDS011;10407;53.238;10.448;2023-09-18T03:58:15;123.87;;;24.33;;
20497;SDS011;10407;53.238;10.448;2023-09-18T04:00:43;122.90;;;25.20;;
20497;SDS011;10407;53.238;10.448;2023-09-18T04:03:10;125.67;;;27.87;;
20497;SDS011;10407;53.238;10.448;2023-09-18T04:05:38;124.57;;;25.40;;
20497;SDS011;10407;53.238;10.448;2023-09-18T04:08:05;128.10;;;28.20;;
20497;SDS011;10407;53.238;10.448;2023-09-18T04:10:33;124.20;;;26.67;;
20497;SDS011;10407;53.238;10.448;2023-09-18T04:13:00;124.80;;;27.27;;
20497;SDS011;10407;53.238;10.448;2023-09-18T04:15:29;124.27;;;25.90;;
20497;SDS011;10407;53.238;10.448;2023-09-18T04:17:56;123.10;;;24.57;;
20497;SDS011;10407;53.238;10.448;2023-09-18T04:20:24;122.37;;;23.70;;
20497;SDS011;10407;53.238;10.448;2023-09-18T04:25:47;123.77;;;25.50;;
20497;SDS011;10407;53.238;10.448;2023-09-18T04:28:16;127.90;;;27.97;;
20497;SDS011;10407;53.238;10.448;2023-09-18T04:30:45;140.80;;;32.93;;
20497;SDS011;10407;53.238;10.448;2023-09-18T04:33:13;125.20;;;27.50;;
20497;SDS011;10407;53.238;10.448;2023-09-18T04:35:42;126.57;;;26.87;;
20497;SDS011;10407;53.238;10.448;2023-09-18T04:38:10;128.57;;;27.60;;
20497;SDS011;10407;53.238;10.448;2023-09-18T04:40:39;127.07;;;30.40;;
20497;SDS011;10407;53.238;10.448;2023-09-18T04:43:07;124.47;;;27.33;;
20497;SDS011;10407;53.238;10.448;2023-09-18T04:45:35;124.47;;;24.53;;
20497;SDS011;10407;53.238;10.448;2023-09-18T04:48:02;129.87;;;26.53;;
20497;SDS011;10407;53.238;10.448;2023-09-18T04:50:32;130.40;;;27.13;;
20497;SDS011;10407;53.238;10.448;2023-09-18T04:53:01;126.33;;;28.40;;
20497;SDS011;10407;53.238;10.448;2023-09-18T04:55:29;125.00;;;27.33;;
20497;SDS011;10407;53.238;10.448;2023-09-18T04:57:57;124.67;;;27.70;;
20497;SDS011;10407;53.238;10.448;2023-09-18T05:00:25;124.60;;;27.00;;
20497;SDS011;10407;53.238;10.448;2023-09-18T05:02:54;125.67;;;26.23;;
20497;SDS011;10407;53.238;10.448;2023-09-18T05:05:22;127.13;;;27.33;;
20497;SDS011;10407;53.238;10.448;2023-09-18T05:07:49;125.70;;;28.03;;
20497;SDS011;10407;53.238;10.448;2023-09-18T05:10:17;127.00;;;26.00;;
20497;SDS011;10407;53.238;10.448;2023-09-18T05:12:44;123.77;;;25.17;;
20497;SDS011;10407;53.238;10.448;2023-09-18T05:15:12;124.70;;;27.00;;
20497;SDS011;10407;53.238;10.448;2023-09-18T05:17:40;125.40;;;26.90;;
20497;SDS011;10407;53.238;10.448;2023-09-18T05:20:11;124.73;;;25.47;;
20497;SDS011;10407;53.238;10.448;2023-09-18T05:22:42;132.20;;;33.70;;
20497;SDS011;10407;53.238;10.448;2023-09-18T05:25:10;130.47;;;27.47;;
20497;SDS011;10407;53.238;10.448;2023-09-18T05:27:40;130.80;;;28.57;;
20497;SDS011;10407;53.238;10.448;2023-09-18T05:30:11;125.67;;;28.17;;
20497;SDS011;10407;53.238;10.448;2023-09-18T05:32:41;128.10;;;31.60;;
20497;SDS011;10407;53.238;10.448;2023-09-18T05:35:10;127.37;;;26.57;;
20497;SDS011;10407;53.238;10.448;2023-09-18T05:37:40;124.87;;;25.20;;
20497;SDS011;10407;53.238;10.448;2023-09-18T05:40:08;127.07;;;27.37;;
20497;SDS011;10407;53.238;10.448;2023-09-18T05:42:37;130.87;;;29.17;;
20497;SDS011;10407;53.238;10.448;2023-09-18T05:45:07;134.10;;;28.50;;
20497;SDS011;10407;53.238;10.448;2023-09-18T05:47:36;128.17;;;29.00;;
20497;SDS011;10407;53.238;10.448;2023-09-18T05:50:05;128.13;;;29.30;;
20497;SDS011;10407;53.238;10.448;2023-09-18T05:52:33;131.23;;;30.93;;
20497;SDS011;10407;53.238;10.448;2023-09-18T05:55:04;126.33;;;29.00;;
20497;SDS011;10407;53.238;10.448;2023-09-18T05:57:34;129.80;;;28.30;;
20497;SDS011;10407;53.238;10.448;2023-09-18T06:00:02;122.47;;;23.97;;
20497;SDS011;10407;53.238;10.448;2023-09-18T06:02:30;123.90;;;24.87;;
20497;SDS011;10407;53.238;10.448;2023-09-18T06:04:59;131.60;;;26.23;;
20497;SDS011;10407;53.238;10.448;2023-09-18T06:07:29;128.47;;;27.97;;
20497;SDS011;10407;53.238;10.448;2023-09-18T06:09:57;126.27;;;27.40;;
20497;SDS011;10407;53.238;10.448;2023-09-18T06:12:25;124.13;;;25.93;;
20497;SDS011;10407;53.238;10.448;2023-09-18T06:14:52;124.27;;;29.70;;
20497;SDS011;10407;53.238;10.448;2023-09-18T06:17:20;124.30;;;29.07;;
20497;SDS011;10407;53.238;10.448;2023-09-18T06:19:48;124.13;;;28.10;;
20497;SDS011;10407;53.238;10.448;2023-09-18T06:22:15;124.90;;;30.67;;
20497;SDS011;10407;53.238;10.448;2023-09-18T06:24:43;133.60;;;32.93;;
20497;SDS011;10407;53.238;10.448;2023-09-18T06:27:10;124.63;;;28.17;;
20497;SDS011;10407;53.238;10.448;2023-09-18T06:29:38;124.00;;;27.27;;
20497;SDS011;10407;53.238;10.448;2023-09-18T06:32:07;123.10;;;25.20;;
20497;SDS011;10407;53.238;10.448;2023-09-18T06:34:35;130.50;;;24.43;;
20497;SDS011;10407;53.238;10.448;2023-09-18T06:37:02;122.70;;;25.00;;
20497;SDS011;10407;53.238;10.448;2023-09-18T06:39:32;122.87;;;24.70;;
20497;SDS011;10407;53.238;10.448;2023-09-18T06:41:59;124.83;;;23.87;;
20497;SDS011;10407;53.238;10.448;2023-09-18T06:44:27;122.67;;;23.80;;
20497;SDS011;10407;53.238;10.448;2023-09-18T06:46:54;124.17;;;25.23;;
20497;SDS011;10407;53.238;10.448;2023-09-18T06:49:22;124.23;;;25.70;;
20497;SDS011;10407;53.238;10.448;2023-09-18T06:51:50;122.23;;;24.07;;
20497;SDS011;10407;53.238;10.448;2023-09-18T06:54:18;120.03;;;21.80;;
20497;SDS011;10407;53.238;10.448;2023-09-18T06:56:46;122.67;;;22.17;;
20497;SDS011;10407;53.238;10.448;2023-09-18T06:59:13;120.23;;;22.20;;
20497;SDS011;10407;53.238;10.448;2023-09-18T07:01:41;121.67;;;22.70;;
20497;SDS011;10407;53.238;10.448;2023-09-18T07:04:09;123.53;;;25.27;;
20497;SDS011;10407;53.238;10.448;2023-09-18T07:06:37;124.03;;;24.27;;
20497;SDS011;10407;53.238;10.448;2023-09-18T07:09:04;120.97;;;21.80;;
20497;SDS011;10407;53.238;10.448;2023-09-18T07:11:35;124.10;;;25.20;;
20497;SDS011;10407;53.238;10.448;2023-09-18T07:14:02;131.43;;;30.37;;
20497;SDS011;10407;53.238;10.448;2023-09-18T07:16:32;129.17;;;32.67;;
20497;SDS011;10407;53.238;10.448;2023-09-18T07:19:00;133.20;;;32.27;;
20497;SDS011;10407;53.238;10.448;2023-09-18T07:21:29;126.27;;;31.50;;
20497;SDS011;10407;53.238;10.448;2023-09-18T07:23:57;128.30;;;30.20;;
20497;SDS011;10407;53.238;10.448;2023-09-18T07:26:24;127.37;;;28.57;;
20497;SDS011;10407;53.238;10.448;2023-09-18T07:28:52;122.90;;;25.00;;
20497;SDS011;10407;53.238;10.448;2023-09-18T07:31:19;126.30;;;29.20;;
20497;SDS011;10407;53.238;10.448;2023-09-18T07:33:47;126.10;;;29.43;;
20497;SDS011;10407;53.238;10.448;2023-09-18T07:36:14;124.30;;;28.50;;
20497;SDS011;10407;53.238;10.448;2023-09-18T07:38:42;126.07;;;28.17;;
20497;SDS011;10407;53.238;10.448;2023-09-18T07:41:09;127.33;;;29.20;;
20497;SDS011;10407;53.238;10.448;2023-09-18T07:43:37;126.60;;;32.67;;
20497;SDS011;10407;53.238;10.448;2023-09-18T07:46:05;124.27;;;28.47;;
20497;SDS011;10407;53.238;10.448;2023-09-18T07:48:33;124.37;;;28.13;;
20497;SDS011;10407;53.238;10.448;2023-09-18T07:51:01;123.67;;;24.93;;
20497;SDS011;10407;53.238;10.448;2023-09-18T07:53:28;124.30;;;27.40;;
20497;SDS011;10407;53.238;10.448;2023-09-18T07:55:57;122.90;;;27.30;;
20497;SDS011;10407;53.238;10.448;2023-09-18T07:58:25;122.30;;;24.40;;
20497;SDS011;10407;53.238;10.448;2023-09-18T08:00:58;123.70;;;26.10;;
20497;SDS011;10407;53.238;10.448;2023-09-18T08:03:24;124.03;;;25.17;;
20497;SDS011;10407;53.238;10.448;2023-09-18T08:05:52;126.17;;;25.60;;
20497;SDS011;10407;53.238;10.448;2023-09-18T08:08:20;123.87;;;25.43;;
20497;SDS011;10407;53.238;10.448;2023-09-18T08:10:49;125.87;;;27.10;;
20497;SDS011;10407;53.238;10.448;2023-09-18T08:13:18;124.07;;;29.10;;
20497;SDS011;10407;53.238;10.448;2023-09-18T08:15:50;125.20;;;28.33;;
20497;SDS011;10407;53.238;10.448;2023-09-18T08:18:18;124.10;;;30.00;;
20497;SDS011;10407;53.238;10.448;2023-09-18T08:20:46;124.10;;;29.40;;
20497;SDS011;10407;53.238;10.448;2023-09-18T08:23:13;123.53;;;27.90;;
20497;SDS011;10407;53.238;10.448;2023-09-18T08:25:41;123.60;;;26.57;;
20497;SDS011;10407;53.238;10.448;2023-09-18T08:28:08;123.77;;;27.40;;
20497;SDS011;10407;53.238;10.448;2023-09-18T08:30:36;120.50;;;23.17;;
20497;SDS011;10407;53.238;10.448;2023-09-18T08:33:05;133.60;;;27.20;;
20497;SDS011;10407;53.238;10.448;2023-09-18T08:35:32;121.60;;;24.00;;
20497;SDS011;10407;53.238;10.448;2023-09-18T08:38:00;124.57;;;27.87;;
20497;SDS011;10407;53.238;10.448;2023-09-18T08:40:28;123.97;;;26.37;;
20497;SDS011;10407;53.238;10.448;2023-09-18T08:42:56;125.67;;;26.87;;
20497;SDS011;10407;53.238;10.448;2023-09-18T08:45:31;123.17;;;26.70;;
20497;SDS011;10407;53.238;10.448;2023-09-18T08:48:03;121.87;;;26.10;;
20497;SDS011;10407;53.238;10.448;2023-09-18T08:50:33;125.57;;;24.10;;
20497;SDS011;10407;53.238;10.448;2023-09-18T08:53:01;123.23;;;26.60;;
20497;SDS011;10407;53.238;10.448;2023-09-18T08:55:30;124.87;;;26.80;;
20497;SDS011;10407;53.238;10.448;2023-09-18T08:57:58;122.13;;;26.07;;
20497;SDS011;10407;53.238;10.448;2023-09-18T09:00:26;122.57;;;27.20;;
20497;SDS011;10407;53.238;10.448;2023-09-18T09:02:54;121.70;;;24.77;;
20497;SDS011;10407;53.238;10.448;2023-09-18T09:05:22;123.90;;;28.17;;
20497;SDS011;10407;53.238;10.448;2023-09-18T09:07:50;122.57;;;24.37;;
20497;SDS011;10407;53.238;10.448;2023-09-18T09:10:18;126.77;;;29.60;;
20497;SDS011;10407;53.238;10.448;2023-09-18T09:12:58;124.10;;;27.77;;
20497;SDS011;10407;53.238;10.448;2023-09-18T09:15:32;122.50;;;25.67;;
20497;SDS011;10407;53.238;10.448;2023-09-18T09:18:02;125.30;;;27.50;;
20497;SDS011;10407;53.238;10.448;2023-09-18T09:20:35;123.57;;;27.33;;
20497;SDS011;10407;53.238;10.448;2023-09-18T09:23:08;123.97;;;28.13;;
20497;SDS011;10407;53.238;10.448;2023-09-18T09:25:33;123.00;;;26.23;;
20497;SDS011;10407;53.238;10.448;2023-09-18T09:28:01;126.30;;;29.77;;
20497;SDS011;10407;53.238;10.448;2023-09-18T09:30:31;123.27;;;28.70;;
20497;SDS011;10407;53.238;10.448;2023-09-18T09:32:59;124.27;;;28.03;;
20497;SDS011;10407;53.238;10.448;2023-09-18T09:35:30;123.27;;;27.30;;
20497;SDS011;10407;53.238;10.448;2023-09-18T09:38:01;123.27;;;25.73;;
20497;SDS011;10407;53.238;10.448;2023-09-18T09:40:40;123.57;;;26.93;;
20497;SDS011;10407;53.238;10.448;2023-09-18T09:43:11;123.00;;;25.77;;
20497;SDS011;10407;53.238;10.448;2023-09-18T09:45:40;123.40;;;26.70;;
20497;SDS011;10407;53.238;10.448;2023-09-18T09:48:09;131.60;;;30.17;;
20497;SDS011;10407;53.238;10.448;2023-09-18T09:50:46;129.17;;;31.30;;
20497;SDS011;10407;53.238;10.448;2023-09-18T09:53:16;127.00;;;29.87;;
20497;SDS011;10407;53.238;10.448;2023-09-18T09:55:44;126.47;;;30.13;;
20497;SDS011;10407;53.238;10.448;2023-09-18T09:58:13;123.60;;;25.93;;
20497;SDS011;10407;53.238;10.448;2023-09-18T10:00:44;124.17;;;24.00;;
20497;SDS011;10407;53.238;10.448;2023-09-18T10:03:14;124.13;;;26.70;;
20497;SDS011;10407;53.238;10.448;2023-09-18T10:05:44;128.80;;;29.20;;
20497;SDS011;10407;53.238;10.448;2023-09-18T10:08:14;135.37;;;32.63;;
20497;SDS011;10407;53.238;10.448;2023-09-18T10:10:47;131.07;;;27.67;;
20497;SDS011;10407;53.238;10.448;2023-09-18T10:16:11;124.10;;;27.20;;
20497;SDS011;10407;53.238;10.448;2023-09-18T10:18:45;122.80;;;24.90;;
20497;SDS011;10407;53.238;10.448;2023-09-18T10:21:26;125.07;;;27.83;;
20497;SDS011;10407;53.238;10.448;2023-09-18T10:24:04;125.60;;;30.67;;
20497;SDS011;10407;53.238;10.448;2023-09-18T10:26:42;125.90;;;30.70;;
20497;SDS011;10407;53.238;10.448;2023-09-18T10:29:12;125.80;;;30.33;;
20497;SDS011;10407;53.238;10.448;2023-09-18T10:31:43;125.50;;;30.40;;
20497;SDS011;10407;53.238;10.448;2023-09-18T10:34:13;125.10;;;30.00;;
20497;SDS011;10407;53.238;10.448;2023-09-18T10:36:42;129.57;;;27.80;;
20497;SDS011;10407;53.238;10.448;2023-09-18T10:39:11;122.70;;;26.87;;
20497;SDS011;10407;53.238;10.448;2023-09-18T10:41:39;128.70;;;24.93;;
20497;SDS011;10407;53.238;10.448;2023-09-18T10:44:07;126.30;;;23.53;;
20497;SDS011;10407;53.238;10.448;2023-09-18T10:46:37;124.97;;;25.47;;
20497;SDS011;10407;53.238;10.448;2023-09-18T10:49:04;121.90;;;24.50;;
20497;SDS011;10407;53.238;10.448;2023-09-18T10:51:32;123.60;;;26.20;;
20497;SDS011;10407;53.238;10.448;2023-09-18T10:54:00;122.53;;;25.90;;
20497;SDS011;10407;53.238;10.448;2023-09-18T10:56:29;124.13;;;27.83;;
20497;SDS011;10407;53.238;10.448;2023-09-18T10:58:59;128.93;;;25.80;;
20497;SDS011;10407;53.238;10.448;2023-09-18T11:01:27;125.07;;;25.47;;
20497;SDS011;10407;53.238;10.448;2023-09-18T11:04:07;123.27;;;25.57;;
20497;SDS011;10407;53.238;10.448;2023-09-18T11:09:25;122.87;;;27.13;;
20497;SDS011;10407;53.238;10.448;2023-09-18T11:17:28;133.37;;;26.40;;
20497;SDS011;10407;53.238;10.448;2023-09-18T11:22:57;123.17;;;28.63;;
20497;SDS011;10407;53.238;10.448;2023-09-18T11:25:37;127.93;;;25.63;;
20497;SDS011;10407;53.238;10.448;2023-09-18T11:28:07;125.23;;;25.73;;
20497;SDS011;10407;53.238;10.448;2023-09-18T11:30:38;126.13;;;27.50;;
20497;SDS011;10407;53.238;10.448;2023-09-18T11:33:10;124.07;;;28.03;;
20497;SDS011;10407;53.238;10.448;2023-09-18T11:35:38;128.17;;;29.60;;
20497;SDS011;10407;53.238;10.448;2023-09-18T11:38:10;126.23;;;29.37;;
20497;SDS011;10407;53.238;10.448;2023-09-18T11:40:39;129.10;;;29.37;;
20497;SDS011;10407;53.238;10.448;2023-09-18T11:45:57;127.97;;;29.77;;
20497;SDS011;10407;53.238;10.448;2023-09-18T11:48:28;127.60;;;26.93;;
20497;SDS011;10407;53.238;10.448;2023-09-18T11:50:56;130.30;;;27.17;;
20497;SDS011;10407;53.238;10.448;2023-09-18T11:53:24;126.97;;;26.00;;
20497;SDS011;10407;53.238;10.448;2023-09-18T11:55:54;131.27;;;26.17;;
20497;SDS011;10407;53.238;10.448;2023-09-18T11:58:22;126.33;;;26.63;;
20497;SDS011;10407;53.238;10.448;2023-09-18T12:00:50;128.87;;;26.80;;
20497;SDS011;10407;53.238;10.448;2023-09-18T12:03:21;135.27;;;30.53;;
20497;SDS011;10407;53.238;10.448;2023-09-18T12:06:02;134.73;;;27.10;;
20497;SDS011;10407;53.238;10.448;2023-09-18T12:08:32;127.50;;;26.67;;
20497;SDS011;10407;53.238;10.448;2023-09-18T12:11:04;122.33;;;26.37;;
20497;SDS011;10407;53.238;10.448;2023-09-18T12:13:33;130.83;;;27.63;;
20497;SDS011;10407;53.238;10.448;2023-09-18T12:16:02;126.73;;;27.80;;
20497;SDS011;10407;53.238;10.448;2023-09-18T12:18:32;128.03;;;26.93;;
20497;SDS011;10407;53.238;10.448;2023-09-18T12:21:06;124.00;;;28.53;;
20497;SDS011;10407;53.238;10.448;2023-09-18T12:23:38;123.80;;;26.93;;
20497;SDS011;10407;53.238;10.448;2023-09-18T12:26:06;124.90;;;29.17;;
20497;SDS011;10407;53.238;10.448;2023-09-18T12:28:35;121.73;;;26.97;;
20497;SDS011;10407;53.238;10.448;2023-09-18T12:31:03;127.23;;;25.90;;
20497;SDS011;10407;53.238;10.448;2023-09-18T12:33:34;122.00;;;21.53;;
20497;SDS011;10407;53.238;10.448;2023-09-18T12:36:03;123.17;;;19.53;;
20497;SDS011;10407;53.238;10.448;2023-09-18T12:38:32;117.77;;;18.93;;
20497;SDS011;10407;53.238;10.448;2023-09-18T12:41:01;132.03;;;21.80;;
20497;SDS011;10407;53.238;10.448;2023-09-18T12:43:36;119.07;;;19.70;;
20497;SDS011;10407;53.238;10.448;2023-09-18T12:46:05;117.40;;;18.53;;
20497;SDS011;10407;53.238;10.448;2023-09-18T12:48:37;126.43;;;22.07;;
20497;SDS011;10407;53.238;10.448;2023-09-18T12:51:09;121.70;;;20.50;;
20497;SDS011;10407;53.238;10.448;2023-09-18T12:53:37;119.70;;;19.83;;
20497;SDS011;10407;53.238;10.448;2023-09-18T12:56:08;123.17;;;20.40;;
20497;SDS011;10407;53.238;10.448;2023-09-18T12:58:40;121.47;;;20.40;;
20497;SDS011;10407;53.238;10.448;2023-09-18T13:01:10;122.23;;;21.30;;
20497;SDS011;10407;53.238;10.448;2023-09-18T13:03:44;121.73;;;21.17;;
20497;SDS011;10407;53.238;10.448;2023-09-18T13:06:16;117.80;;;19.57;;
20497;SDS011;10407;53.238;10.448;2023-09-18T13:08:46;121.00;;;22.20;;
20497;SDS011;10407;53.238;10.448;2023-09-18T13:11:14;117.90;;;20.97;;
20497;SDS011;10407;53.238;10.448;2023-09-18T13:13:42;121.20;;;20.50;;
20497;SDS011;10407;53.238;10.448;2023-09-18T13:16:10;123.23;;;19.73;;
20497;SDS011;10407;53.238;10.448;2023-09-18T13:18:38;118.13;;;18.83;;
20497;SDS011;10407;53.238;10.448;2023-09-18T13:21:10;119.47;;;20.67;;
20497;SDS011;10407;53.238;10.448;2023-09-18T13:23:38;125.37;;;21.40;;
20497;SDS011;10407;53.238;10.448;2023-09-18T13:26:07;125.77;;;21.73;;
20497;SDS011;10407;53.238;10.448;2023-09-18T13:28:35;117.50;;;20.53;;
20497;SDS011;10407;53.238;10.448;2023-09-18T13:31:03;119.43;;;21.30;;
20497;SDS011;10407;53.238;10.448;2023-09-18T13:33:32;118.47;;;18.07;;
20497;SDS011;10407;53.238;10.448;2023-09-18T13:36:02;121.87;;;19.83;;
20497;SDS011;10407;53.238;10.448;2023-09-18T13:38:30;115.23;;;16.10;;
20497;SDS011;10407;53.238;10.448;2023-09-18T13:40:58;115.97;;;18.13;;
20497;SDS011;10407;53.238;10.448;2023-09-18T13:43:25;120.80;;;19.53;;
20497;SDS011;10407;53.238;10.448;2023-09-18T13:45:53;118.57;;;18.53;;
20497;SDS011;10407;53.238;10.448;2023-09-18T13:48:24;119.90;;;21.50;;
20497;SDS011;10407;53.238;10.448;2023-09-18T13:50:52;118.47;;;19.83;;
20497;SDS011;10407;53.238;10.448;2023-09-18T13:53:19;119.00;;;18.93;;
20497;SDS011;10407;53.238;10.448;2023-09-18T13:55:48;124.10;;;19.17;;
20497;SDS011;10407;53.238;10.448;2023-09-18T13:58:15;121.27;;;21.03;;
20497;SDS011;10407;53.238;10.448;2023-09-18T14:00:43;119.17;;;21.57;;
20497;SDS011;10407;53.238;10.448;2023-09-18T14:03:10;124.37;;;21.73;;
20497;SDS011;10407;53.238;10.448;2023-09-18T14:05:39;119.43;;;22.13;;
20497;SDS011;10407;53.238;10.448;2023-09-18T14:08:07;126.93;;;23.37;;
20497;SDS011;10407;53.238;10.448;2023-09-18T14:10:34;124.80;;;27.00;;
20497;SDS011;10407;53.238;10.448;2023-09-18T14:13:04;123.60;;;26.30;;
20497;SDS011;10407;53.238;10.448;2023-09-18T14:15:31;121.57;;;24.90;;
20497;SDS011;10407;53.238;10.448;2023-09-18T14:17:59;123.87;;;28.53;;
20497;SDS011;10407;53.238;10.448;2023-09-18T14:20:26;126.10;;;26.00;;
20497;SDS011;10407;53.238;10.448;2023-09-18T14:22:54;123.57;;;26.10;;
20497;SDS011;10407;53.238;10.448;2023-09-18T14:25:21;126.73;;;26.80;;
20497;SDS011;10407;53.238;10.448;2023-09-18T14:27:49;125.10;;;29.90;;